sensor_id;sensor_type;location;lat;lon;timestamp;temperature;humidity
17483;DHT22;8858;52.308;20.994;2024-03-25T00:02:09;6.10;99.90
17483;DHT22;8858;52.308;20.994;2024-03-25T00:07:39;6.10;99.90
17483;DHT22;8858;52.308;20.994;2024-03-25T00:10:07;6.10;99.90
17483;DHT22;8858;52.308;20.994;2024-03-25T00:12:38;6.00;99.90
17483;DHT22;8858;52.308;20.994;2024-03-25T00:18:09;6.10;99.90
17483;DHT22;8858;52.308;20.994;2024-03-25T00:20:37;6.10;99.90
17483;DHT22;8858;52.308;20.994;2024-03-25T00:23:05;6.10;99.90
17483;DHT22;8858;52.308;20.994;2024-03-25T00:25:33;6.10;99.90
17483;DHT22;8858;52.308;20.994;2024-03-25T00:28:00;6.10;99.90
17483;DHT22;8858;52.308;20.994;2024-03-25T00:30:28;6.10;99.90
17483;DHT22;8858;52.308;20.994;2024-03-25T00:32:54;6.10;99.90
17483;DHT22;8858;52.308;20.994;2024-03-25T00:35:26;6.10;99.90
17483;DHT22;8858;52.308;20.994;2024-03-25T00:37:52;6.10;99.90
17483;DHT22;8858;52.308;20.994;2024-03-25T00:43:15;6.20;99.90
17483;DHT22;8858;52.308;20.994;2024-03-25T00:45:43;6.20;99.90
17483;DHT22;8858;52.308;20.994;2024-03-25T00:48:09;6.20;99.90
17483;DHT22;8858;52.308;20.994;2024-03-25T00:50:40;6.30;99.90
17483;DHT22;8858;52.308;20.994;2024-03-25T00:53:06;6.30;99.90
17483;DHT22;8858;52.308;20.994;2024-03-25T00:55:34;6.40;99.90
17483;DHT22;8858;52.308;20.994;2024-03-25T00:58:01;6.40;99.90
17483;DHT22;8858;52.308;20.994;2024-03-25T01:00:29;6.40;99.90
17483;DHT22;8858;52.308;20.994;2024-03-25T01:02:55;6.50;99.90
17483;DHT22;8858;52.308;20.994;2024-03-25T01:05:23;6.50;99.90
17483;DHT22;8858;52.308;20.994;2024-03-25T01:07:52;6.50;99.90
17483;DHT22;8858;52.308;20.994;2024-03-25T01:16:11;6.60;99.90
17483;DHT22;8858;52.308;20.994;2024-03-25T01:18:42;6.60;99.90
17483;DHT22;8858;52.308;20.994;2024-03-25T01:26:58;6.60;99.90
17483;DHT22;8858;52.308;20.994;2024-03-25T01:29:26;6.50;99.90
17483;DHT22;8858;52.308;20.994;2024-03-25T01:31:52;6.50;99.90
17483;DHT22;8858;52.308;20.994;2024-03-25T01:37:09;6.60;99.90
17483;DHT22;8858;52.308;20.994;2024-03-25T01:39:36;6.60;99.90
17483;DHT22;8858;52.308;20.994;2024-03-25T01:42:06;6.60;99.90
17483;DHT22;8858;52.308;20.994;2024-03-25T01:47:39;6.50;99.90
17483;DHT22;8858;52.308;20.994;2024-03-25T01:50:16;6.50;99.90
17483;DHT22;8858;52.308;20.994;2024-03-25T01:52:43;6.50;99.90
17483;DHT22;8858;52.308;20.994;2024-03-25T01:55:14;6.40;99.90
17483;DHT22;8858;52.308;20.994;2024-03-25T01:57:44;6.40;99.90
17483;DHT22;8858;52.308;20.994;2024-03-25T02:03:10;6.40;99.90
17483;DHT22;8858;52.308;20.994;2024-03-25T02:05:39;6.40;99.90
17483;DHT22;8858;52.308;20.994;2024-03-25T02:08:06;6.30;99.90
17483;DHT22;8858;52.308;20.994;2024-03-25T02:10:34;6.30;99.90
17483;DHT22;8858;52.308;20.994;2024-03-25T02:13:02;6.30;99.90
17483;DHT22;8858;52.308;20.994;2024-03-25T02:15:31;6.30;99.90
17483;DHT22;8858;52.308;20.994;2024-03-25T02:17:57;6.30;99.90
17483;DHT22;8858;52.308;20.994;2024-03-25T02:23:14;6.20;99.90
17483;DHT22;8858;52.308;20.994;2024-03-25T02:25:42;6.20;99.90
17483;DHT22;8858;52.308;20.994;2024-03-25T02:28:10;6.10;99.90
17483;DHT22;8858;52.308;20.994;2024-03-25T02:30:41;6.10;99.90
17483;DHT22;8858;52.308;20.994;2024-03-25T02:33:07;6.00;99.90
17483;DHT22;8858;52.308;20.994;2024-03-25T02:38:23;6.00;99.90
17483;DHT22;8858;52.308;20.994;2024-03-25T02:40:50;6.00;99.90
17483;DHT22;8858;52.308;20.994;2024-03-25T02:43:20;5.90;99.90
17483;DHT22;8858;52.308;20.994;2024-03-25T02:51:33;6.00;99.90
17483;DHT22;8858;52.308;20.994;2024-03-25T02:57:06;5.90;99.90
17483;DHT22;8858;52.308;20.994;2024-03-25T02:59:35;5.90;99.90
17483;DHT22;8858;52.308;20.994;2024-03-25T03:02:01;5.80;99.90
17483;DHT22;8858;52.308;20.994;2024-03-25T03:07:21;5.80;99.90
17483;DHT22;8858;52.308;20.994;2024-03-25T03:09:50;5.80;99.90
17483;DHT22;8858;52.308;20.994;2024-03-25T03:12:16;5.80;99.90
17483;DHT22;8858;52.308;20.994;2024-03-25T03:14:44;5.70;99.90
17483;DHT22;8858;52.308;20.994;2024-03-25T03:17:11;5.80;99.90
17483;DHT22;8858;52.308;20.994;2024-03-25T03:19:38;5.80;99.90
17483;DHT22;8858;52.308;20.994;2024-03-25T03:22:04;5.80;99.90
17483;DHT22;8858;52.308;20.994;2024-03-25T03:27:26;5.80;99.90
17483;DHT22;8858;52.308;20.994;2024-03-25T03:29:54;5.80;99.90
17483;DHT22;8858;52.308;20.994;2024-03-25T03:32:21;5.90;99.90
17483;DHT22;8858;52.308;20.994;2024-03-25T03:34:49;5.90;99.90
17483;DHT22;8858;52.308;20.994;2024-03-25T03:37:18;5.90;99.90
17483;DHT22;8858;52.308;20.994;2024-03-25T03:39:46;5.80;99.90
17483;DHT22;8858;52.308;20.994;2024-03-25T03:42:13;5.80;99.90
17483;DHT22;8858;52.308;20.994;2024-03-25T03:44:41;5.80;99.90
17483;DHT22;8858;52.308;20.994;2024-03-25T03:47:09;5.80;99.90
17483;DHT22;8858;52.308;20.994;2024-03-25T03:49:37;5.80;99.90
17483;DHT22;8858;52.308;20.994;2024-03-25T03:52:07;5.90;99.90
17483;DHT22;8858;52.308;20.994;2024-03-25T03:57:31;5.80;99.90
17483;DHT22;8858;52.308;20.994;2024-03-25T04:00:07;5.80;99.90
17483;DHT22;8858;52.308;20.994;2024-03-25T04:02:39;5.70;99.90
17483;DHT22;8858;52.308;20.994;2024-03-25T04:05:07;5.80;99.90
17483;DHT22;8858;52.308;20.994;2024-03-25T04:07:33;5.80;99.90
17483;DHT22;8858;52.308;20.994;2024-03-25T04:10:01;5.80;99.90
17483;DHT22;8858;52.308;20.994;2024-03-25T04:12:31;5.80;99.90
17483;DHT22;8858;52.308;20.994;2024-03-25T04:14:58;5.80;99.90
17483;DHT22;8858;52.308;20.994;2024-03-25T04:17:25;5.80;99.90
17483;DHT22;8858;52.308;20.994;2024-03-25T04:19:54;5.80;99.90
17483;DHT22;8858;52.308;20.994;2024-03-25T04:22:20;5.70;99.90
17483;DHT22;8858;52.308;20.994;2024-03-25T04:24:48;5.70;99.90
17483;DHT22;8858;52.308;20.994;2024-03-25T04:27:15;5.60;99.90
17483;DHT22;8858;52.308;20.994;2024-03-25T04:32:42;5.60;99.90
17483;DHT22;8858;52.308;20.994;2024-03-25T04:35:11;5.70;99.90
17483;DHT22;8858;52.308;20.994;2024-03-25T04:37:37;5.60;99.90
17483;DHT22;8858;52.308;20.994;2024-03-25T04:40:06;5.50;99.90
17483;DHT22;8858;52.308;20.994;2024-03-25T04:42:35;5.70;99.90
17483;DHT22;8858;52.308;20.994;2024-03-25T04:45:02;5.70;99.90
17483;DHT22;8858;52.308;20.994;2024-03-25T04:47:29;5.70;99.90
17483;DHT22;8858;52.308;20.994;2024-03-25T04:49:57;5.60;99.90
17483;DHT22;8858;52.308;20.994;2024-03-25T04:52:25;5.60;99.90
17483;DHT22;8858;52.308;20.994;2024-03-25T04:57:41;5.60;99.90
17483;DHT22;8858;52.308;20.994;2024-03-25T05:06:22;5.60;99.90
17483;DHT22;8858;52.308;20.994;2024-03-25T05:11:53;5.60;99.90
17483;DHT22;8858;52.308;20.994;2024-03-25T05:14:20;5.60;99.90
17483;DHT22;8858;52.308;20.994;2024-03-25T05:16:47;5.60;99.90
17483;DHT22;8858;52.308;20.994;2024-03-25T05:25:22;5.60;99.90
17483;DHT22;8858;52.308;20.994;2024-03-25T05:27:50;5.60;99.90
17483;DHT22;8858;52.308;20.994;2024-03-25T05:30:16;5.60;99.90
17483;DHT22;8858;52.308;20.994;2024-03-25T05:32:42;5.60;99.90
17483;DHT22;8858;52.308;20.994;2024-03-25T05:35:09;5.70;99.90
17483;DHT22;8858;52.308;20.994;2024-03-25T05:37:36;5.70;99.90
17483;DHT22;8858;52.308;20.994;2024-03-25T05:40:04;5.70;99.90
17483;DHT22;8858;52.308;20.994;2024-03-25T05:42:31;5.70;99.90
17483;DHT22;8858;52.308;20.994;2024-03-25T05:44:59;5.80;99.90
17483;DHT22;8858;52.308;20.994;2024-03-25T05:47:25;5.80;99.90
17483;DHT22;8858;52.308;20.994;2024-03-25T05:49:52;5.80;99.90
17483;DHT22;8858;52.308;20.994;2024-03-25T05:52:18;5.80;99.90
17483;DHT22;8858;52.308;20.994;2024-03-25T05:54:45;5.90;99.90
17483;DHT22;8858;52.308;20.994;2024-03-25T05:57:13;6.00;99.90
17483;DHT22;8858;52.308;20.994;2024-03-25T05:59:40;6.10;99.90
17483;DHT22;8858;52.308;20.994;2024-03-25T06:02:08;6.20;99.90
17483;DHT22;8858;52.308;20.994;2024-03-25T06:04:35;6.20;99.90
17483;DHT22;8858;52.308;20.994;2024-03-25T06:07:01;6.20;99.90
17483;DHT22;8858;52.308;20.994;2024-03-25T06:12:24;6.30;99.90
17483;DHT22;8858;52.308;20.994;2024-03-25T06:24:07;6.50;99.90
17483;DHT22;8858;52.308;20.994;2024-03-25T06:26:34;6.50;99.90
17483;DHT22;8858;52.308;20.994;2024-03-25T06:29:01;6.60;99.90
17483;DHT22;8858;52.308;20.994;2024-03-25T06:31:28;6.60;99.90
17483;DHT22;8858;52.308;20.994;2024-03-25T06:34:16;6.70;99.90
17483;DHT22;8858;52.308;20.994;2024-03-25T06:36:45;6.80;99.90
17483;DHT22;8858;52.308;20.994;2024-03-25T06:39:13;6.80;99.90
17483;DHT22;8858;52.308;20.994;2024-03-25T06:41:39;6.90;99.90
17483;DHT22;8858;52.308;20.994;2024-03-25T06:44:06;6.90;99.90
17483;DHT22;8858;52.308;20.994;2024-03-25T06:46:33;6.90;99.90
17483;DHT22;8858;52.308;20.994;2024-03-25T06:48:59;7.00;99.90
17483;DHT22;8858;52.308;20.994;2024-03-25T06:51:26;6.90;99.90
17483;DHT22;8858;52.308;20.994;2024-03-25T06:56:52;7.00;99.90
17483;DHT22;8858;52.308;20.994;2024-03-25T06:59:18;7.10;99.90
17483;DHT22;8858;52.308;20.994;2024-03-25T07:01:44;7.10;99.90
17483;DHT22;8858;52.308;20.994;2024-03-25T07:06:52;7.20;99.90
17483;DHT22;8858;52.308;20.994;2024-03-25T07:09:19;7.20;99.90
17483;DHT22;8858;52.308;20.994;2024-03-25T07:11:46;7.20;99.90
17483;DHT22;8858;52.308;20.994;2024-03-25T07:17:16;7.30;99.90
17483;DHT22;8858;52.308;20.994;2024-03-25T07:19:43;7.40;99.90
17483;DHT22;8858;52.308;20.994;2024-03-25T07:22:09;7.40;99.90
17483;DHT22;8858;52.308;20.994;2024-03-25T07:24:39;7.50;99.90
17483;DHT22;8858;52.308;20.994;2024-03-25T07:27:09;7.50;99.90
17483;DHT22;8858;52.308;20.994;2024-03-25T07:29:36;7.50;99.90
17483;DHT22;8858;52.308;20.994;2024-03-25T07:32:04;7.60;99.90
17483;DHT22;8858;52.308;20.994;2024-03-25T07:34:31;7.60;99.90
17483;DHT22;8858;52.308;20.994;2024-03-25T07:36:58;7.60;99.90
17483;DHT22;8858;52.308;20.994;2024-03-25T07:39:25;7.60;99.90
17483;DHT22;8858;52.308;20.994;2024-03-25T07:41:52;7.70;99.90
17483;DHT22;8858;52.308;20.994;2024-03-25T07:44:18;7.80;99.90
17483;DHT22;8858;52.308;20.994;2024-03-25T07:46:46;7.80;99.90
17483;DHT22;8858;52.308;20.994;2024-03-25T07:49:12;7.90;99.90
17483;DHT22;8858;52.308;20.994;2024-03-25T07:51:40;7.90;99.90
17483;DHT22;8858;52.308;20.994;2024-03-25T07:54:06;7.90;99.90
17483;DHT22;8858;52.308;20.994;2024-03-25T07:56:32;8.00;99.90
17483;DHT22;8858;52.308;20.994;2024-03-25T07:58:59;8.10;99.90
17483;DHT22;8858;52.308;20.994;2024-03-25T08:01:25;8.10;99.90
17483;DHT22;8858;52.308;20.994;2024-03-25T08:06:50;8.20;99.90
17483;DHT22;8858;52.308;20.994;2024-03-25T08:09:17;8.30;99.90
17483;DHT22;8858;52.308;20.994;2024-03-25T08:11:43;8.30;99.90
17483;DHT22;8858;52.308;20.994;2024-03-25T08:14:09;8.40;99.90
17483;DHT22;8858;52.308;20.994;2024-03-25T08:16:36;8.40;99.90
17483;DHT22;8858;52.308;20.994;2024-03-25T08:19:02;8.40;99.90
17483;DHT22;8858;52.308;20.994;2024-03-25T08:21:29;8.40;99.90
17483;DHT22;8858;52.308;20.994;2024-03-25T08:23:57;8.50;99.90
17483;DHT22;8858;52.308;20.994;2024-03-25T08:26:24;8.50;99.90
17483;DHT22;8858;52.308;20.994;2024-03-25T08:28:50;8.60;99.90
17483;DHT22;8858;52.308;20.994;2024-03-25T08:31:17;8.60;99.90
17483;DHT22;8858;52.308;20.994;2024-03-25T08:33:44;8.80;99.90
17483;DHT22;8858;52.308;20.994;2024-03-25T08:36:10;8.90;99.90
17483;DHT22;8858;52.308;20.994;2024-03-25T08:41:26;9.00;99.90
17483;DHT22;8858;52.308;20.994;2024-03-25T08:43:53;9.00;99.90
17483;DHT22;8858;52.308;20.994;2024-03-25T08:46:19;9.10;99.90
17483;DHT22;8858;52.308;20.994;2024-03-25T08:48:45;9.20;99.90
17483;DHT22;8858;52.308;20.994;2024-03-25T08:51:12;9.20;99.90
17483;DHT22;8858;52.308;20.994;2024-03-25T08:56:19;9.30;99.90
17483;DHT22;8858;52.308;20.994;2024-03-25T08:59:09;9.40;99.90
17483;DHT22;8858;52.308;20.994;2024-03-25T09:01:35;9.50;99.90
17483;DHT22;8858;52.308;20.994;2024-03-25T09:04:03;9.50;99.90
17483;DHT22;8858;52.308;20.994;2024-03-25T09:06:29;9.60;99.90
17483;DHT22;8858;52.308;20.994;2024-03-25T09:08:56;9.70;99.90
17483;DHT22;8858;52.308;20.994;2024-03-25T09:11:43;9.70;99.90
17483;DHT22;8858;52.308;20.994;2024-03-25T09:14:11;9.70;99.90
17483;DHT22;8858;52.308;20.994;2024-03-25T09:16:37;9.80;99.90
17483;DHT22;8858;52.308;20.994;2024-03-25T09:21:59;9.80;99.90
17483;DHT22;8858;52.308;20.994;2024-03-25T09:24:26;9.80;99.90
17483;DHT22;8858;52.308;20.994;2024-03-25T09:26:52;9.90;99.90
17483;DHT22;8858;52.308;20.994;2024-03-25T09:29:20;9.90;99.90
17483;DHT22;8858;52.308;20.994;2024-03-25T09:31:46;9.90;99.90
17483;DHT22;8858;52.308;20.994;2024-03-25T09:34:13;9.90;99.90
17483;DHT22;8858;52.308;20.994;2024-03-25T09:36:39;9.90;99.90
17483;DHT22;8858;52.308;20.994;2024-03-25T09:39:05;10.00;99.90
17483;DHT22;8858;52.308;20.994;2024-03-25T09:41:35;10.00;99.90
17483;DHT22;8858;52.308;20.994;2024-03-25T09:44:03;10.10;99.90
17483;DHT22;8858;52.308;20.994;2024-03-25T09:46:34;10.20;99.90
17483;DHT22;8858;52.308;20.994;2024-03-25T09:49:00;10.30;99.90
17483;DHT22;8858;52.308;20.994;2024-03-25T09:51:27;10.40;99.90
17483;DHT22;8858;52.308;20.994;2024-03-25T09:53:53;10.40;99.90
17483;DHT22;8858;52.308;20.994;2024-03-25T09:56:20;10.50;99.90
17483;DHT22;8858;52.308;20.994;2024-03-25T09:58:46;10.50;99.90
17483;DHT22;8858;52.308;20.994;2024-03-25T10:01:14;10.50;99.90
17483;DHT22;8858;52.308;20.994;2024-03-25T10:03:43;10.50;99.90
17483;DHT22;8858;52.308;20.994;2024-03-25T10:06:09;10.20;99.90
17483;DHT22;8858;52.308;20.994;2024-03-25T10:08:37;9.80;99.90
17483;DHT22;8858;52.308;20.994;2024-03-25T10:11:03;9.50;99.90
17483;DHT22;8858;52.308;20.994;2024-03-25T10:13:30;9.30;99.90
17483;DHT22;8858;52.308;20.994;2024-03-25T10:15:57;9.30;99.90
17483;DHT22;8858;52.308;20.994;2024-03-25T10:18:27;9.30;99.90
17483;DHT22;8858;52.308;20.994;2024-03-25T10:20:55;9.40;99.90
17483;DHT22;8858;52.308;20.994;2024-03-25T10:23:21;9.50;99.90
17483;DHT22;8858;52.308;20.994;2024-03-25T10:25:52;9.70;99.90
17483;DHT22;8858;52.308;20.994;2024-03-25T10:28:19;9.80;99.90
17483;DHT22;8858;52.308;20.994;2024-03-25T10:30:46;9.90;99.90
17483;DHT22;8858;52.308;20.994;2024-03-25T10:33:12;10.00;99.90
17483;DHT22;8858;52.308;20.994;2024-03-25T10:35:40;10.10;99.90
17483;DHT22;8858;52.308;20.994;2024-03-25T10:38:10;10.10;99.90
17483;DHT22;8858;52.308;20.994;2024-03-25T10:40:37;10.20;99.90
17483;DHT22;8858;52.308;20.994;2024-03-25T10:43:05;10.30;99.90
17483;DHT22;8858;52.308;20.994;2024-03-25T10:45:37;10.40;99.90
17483;DHT22;8858;52.308;20.994;2024-03-25T10:48:06;10.50;99.90
17483;DHT22;8858;52.308;20.994;2024-03-25T10:50:35;10.50;99.90
17483;DHT22;8858;52.308;20.994;2024-03-25T10:53:02;10.50;99.90
17483;DHT22;8858;52.308;20.994;2024-03-25T10:55:32;10.60;99.90
17483;DHT22;8858;52.308;20.994;2024-03-25T10:58:30;10.50;99.90
17483;DHT22;8858;52.308;20.994;2024-03-25T11:00:59;10.40;99.90
17483;DHT22;8858;52.308;20.994;2024-03-25T11:03:26;10.40;99.90
17483;DHT22;8858;52.308;20.994;2024-03-25T11:05:53;10.50;99.90
17483;DHT22;8858;52.308;20.994;2024-03-25T11:08:19;10.60;99.90
17483;DHT22;8858;52.308;20.994;2024-03-25T11:10:47;10.50;99.90
17483;DHT22;8858;52.308;20.994;2024-03-25T11:19:29;10.60;99.90
17483;DHT22;8858;52.308;20.994;2024-03-25T11:25:05;10.60;99.90
17483;DHT22;8858;52.308;20.994;2024-03-25T11:30:22;10.60;99.90
17483;DHT22;8858;52.308;20.994;2024-03-25T11:32:53;10.50;99.90
17483;DHT22;8858;52.308;20.994;2024-03-25T11:35:20;10.50;99.90
17483;DHT22;8858;52.308;20.994;2024-03-25T11:37:48;10.50;99.90
17483;DHT22;8858;52.308;20.994;2024-03-25T11:40:15;10.30;99.90
17483;DHT22;8858;52.308;20.994;2024-03-25T11:42:42;10.40;99.90
17483;DHT22;8858;52.308;20.994;2024-03-25T11:45:14;10.40;99.90
17483;DHT22;8858;52.308;20.994;2024-03-25T11:50:38;10.40;99.90
17483;DHT22;8858;52.308;20.994;2024-03-25T11:53:05;10.40;99.90
17483;DHT22;8858;52.308;20.994;2024-03-25T11:55:31;10.30;99.90
17483;DHT22;8858;52.308;20.994;2024-03-25T12:00:54;10.20;99.90
17483;DHT22;8858;52.308;20.994;2024-03-25T12:03:21;10.20;99.90
17483;DHT22;8858;52.308;20.994;2024-03-25T12:05:53;10.30;99.90
17483;DHT22;8858;52.308;20.994;2024-03-25T12:08:21;10.40;99.90
17483;DHT22;8858;52.308;20.994;2024-03-25T12:10:48;10.40;99.90
17483;DHT22;8858;52.308;20.994;2024-03-25T12:18:08;10.60;99.90
17483;DHT22;8858;52.308;20.994;2024-03-25T12:20:35;10.80;99.90
17483;DHT22;8858;52.308;20.994;2024-03-25T12:25:50;11.10;99.90
17483;DHT22;8858;52.308;20.994;2024-03-25T12:28:17;11.40;99.90
17483;DHT22;8858;52.308;20.994;2024-03-25T12:30:52;11.70;99.90
17483;DHT22;8858;52.308;20.994;2024-03-25T12:33:20;11.90;99.90
17483;DHT22;8858;52.308;20.994;2024-03-25T12:35:46;12.00;99.90
17483;DHT22;8858;52.308;20.994;2024-03-25T12:38:24;11.90;99.90
17483;DHT22;8858;52.308;20.994;2024-03-25T12:40:51;11.80;99.90
17483;DHT22;8858;52.308;20.994;2024-03-25T12:43:19;11.80;99.90
17483;DHT22;8858;52.308;20.994;2024-03-25T12:45:46;11.70;99.90
17483;DHT22;8858;52.308;20.994;2024-03-25T12:48:36;11.90;99.90
17483;DHT22;8858;52.308;20.994;2024-03-25T12:51:03;12.20;99.90
17483;DHT22;8858;52.308;20.994;2024-03-25T12:53:32;12.30;99.90
17483;DHT22;8858;52.308;20.994;2024-03-25T12:55:58;12.40;99.90
17483;DHT22;8858;52.308;20.994;2024-03-25T12:58:25;11.90;99.90
17483;DHT22;8858;52.308;20.994;2024-03-25T13:00:51;11.50;99.90
17483;DHT22;8858;52.308;20.994;2024-03-25T13:12:06;10.80;99.90
17483;DHT22;8858;52.308;20.994;2024-03-25T13:14:32;10.60;99.90
17483;DHT22;8858;52.308;20.994;2024-03-25T13:16:58;10.70;99.90
17483;DHT22;8858;52.308;20.994;2024-03-25T13:19:26;10.70;99.90
17483;DHT22;8858;52.308;20.994;2024-03-25T13:24:55;10.20;99.90
17483;DHT22;8858;52.308;20.994;2024-03-25T13:27:22;10.20;99.90
17483;DHT22;8858;52.308;20.994;2024-03-25T13:29:52;10.20;99.90
17483;DHT22;8858;52.308;20.994;2024-03-25T13:32:18;10.20;99.90
17483;DHT22;8858;52.308;20.994;2024-03-25T13:34:45;10.20;99.90
17483;DHT22;8858;52.308;20.994;2024-03-25T13:37:12;10.30;99.90
17483;DHT22;8858;52.308;20.994;2024-03-25T13:39:38;10.30;99.90
17483;DHT22;8858;52.308;20.994;2024-03-25T13:42:05;10.40;99.90
17483;DHT22;8858;52.308;20.994;2024-03-25T13:44:32;10.50;99.90
17483;DHT22;8858;52.308;20.994;2024-03-25T13:46:59;10.60;99.90
17483;DHT22;8858;52.308;20.994;2024-03-25T13:49:25;10.80;99.90
17483;DHT22;8858;52.308;20.994;2024-03-25T13:51:57;10.90;99.90
17483;DHT22;8858;52.308;20.994;2024-03-25T13:54:24;10.80;99.90
17483;DHT22;8858;52.308;20.994;2024-03-25T13:59:50;10.40;99.90
17483;DHT22;8858;52.308;20.994;2024-03-25T14:02:19;10.60;99.90
17483;DHT22;8858;52.308;20.994;2024-03-25T14:04:45;10.80;99.90
17483;DHT22;8858;52.308;20.994;2024-03-25T14:10:18;11.00;99.90
17483;DHT22;8858;52.308;20.994;2024-03-25T14:12:44;11.00;99.90
17483;DHT22;8858;52.308;20.994;2024-03-25T14:15:13;10.80;99.90
17483;DHT22;8858;52.308;20.994;2024-03-25T14:17:40;10.60;99.90
17483;DHT22;8858;52.308;20.994;2024-03-25T14:20:07;10.60;99.90
17483;DHT22;8858;52.308;20.994;2024-03-25T14:22:34;10.70;99.90
17483;DHT22;8858;52.308;20.994;2024-03-25T14:25:00;10.60;99.90
17483;DHT22;8858;52.308;20.994;2024-03-25T14:30:24;10.70;99.90
17483;DHT22;8858;52.308;20.994;2024-03-25T14:32:50;10.80;99.90
17483;DHT22;8858;52.308;20.994;2024-03-25T14:35:17;10.90;99.90
17483;DHT22;8858;52.308;20.994;2024-03-25T14:37:43;11.00;99.90
17483;DHT22;8858;52.308;20.994;2024-03-25T14:40:10;11.00;99.90
17483;DHT22;8858;52.308;20.994;2024-03-25T14:45:34;10.80;99.90
17483;DHT22;8858;52.308;20.994;2024-03-25T14:48:00;10.60;99.90
17483;DHT22;8858;52.308;20.994;2024-03-25T14:50:27;10.60;99.90
17483;DHT22;8858;52.308;20.994;2024-03-25T14:59:00;10.80;99.90
17483;DHT22;8858;52.308;20.994;2024-03-25T15:01:28;10.70;99.90
17483;DHT22;8858;52.308;20.994;2024-03-25T15:03:54;10.70;99.90
17483;DHT22;8858;52.308;20.994;2024-03-25T15:09:16;11.00;99.90
17483;DHT22;8858;52.308;20.994;2024-03-25T15:14:39;10.70;99.90
17483;DHT22;8858;52.308;20.994;2024-03-25T15:17:07;10.60;99.90
17483;DHT22;8858;52.308;20.994;2024-03-25T15:19:33;10.60;99.90
17483;DHT22;8858;52.308;20.994;2024-03-25T15:21:59;10.70;99.90
17483;DHT22;8858;52.308;20.994;2024-03-25T15:24:26;10.80;99.90
17483;DHT22;8858;52.308;20.994;2024-03-25T15:26:55;10.70;99.90
17483;DHT22;8858;52.308;20.994;2024-03-25T15:29:23;10.60;99.90
17483;DHT22;8858;52.308;20.994;2024-03-25T15:31:50;10.70;99.90
17483;DHT22;8858;52.308;20.994;2024-03-25T15:34:19;10.80;99.90
17483;DHT22;8858;52.308;20.994;2024-03-25T15:36:47;10.90;99.90
17483;DHT22;8858;52.308;20.994;2024-03-25T15:39:16;11.00;99.90
17483;DHT22;8858;52.308;20.994;2024-03-25T15:41:42;11.10;99.90
17483;DHT22;8858;52.308;20.994;2024-03-25T15:44:09;11.20;99.90
17483;DHT22;8858;52.308;20.994;2024-03-25T15:46:35;11.30;99.90
17483;DHT22;8858;52.308;20.994;2024-03-25T15:49:02;11.20;99.90
17483;DHT22;8858;52.308;20.994;2024-03-25T15:51:39;11.30;99.90
17483;DHT22;8858;52.308;20.994;2024-03-25T15:54:05;11.20;99.90
17483;DHT22;8858;52.308;20.994;2024-03-25T15:56:32;11.20;99.90
17483;DHT22;8858;52.308;20.994;2024-03-25T15:58:58;11.30;99.90
17483;DHT22;8858;52.308;20.994;2024-03-25T16:04:21;11.40;99.90
17483;DHT22;8858;52.308;20.994;2024-03-25T16:06:49;11.60;99.90
17483;DHT22;8858;52.308;20.994;2024-03-25T16:09:17;11.60;99.90
17483;DHT22;8858;52.308;20.994;2024-03-25T16:11:44;11.70;99.90
17483;DHT22;8858;52.308;20.994;2024-03-25T16:14:10;11.80;99.90
17483;DHT22;8858;52.308;20.994;2024-03-25T16:16:41;11.90;99.90
17483;DHT22;8858;52.308;20.994;2024-03-25T16:19:07;12.00;99.90
17483;DHT22;8858;52.308;20.994;2024-03-25T16:21:34;12.00;99.90
17483;DHT22;8858;52.308;20.994;2024-03-25T16:24:02;12.00;99.90
17483;DHT22;8858;52.308;20.994;2024-03-25T16:26:29;12.10;99.90
17483;DHT22;8858;52.308;20.994;2024-03-25T16:28:55;12.10;99.90
17483;DHT22;8858;52.308;20.994;2024-03-25T16:34:17;12.00;99.90
17483;DHT22;8858;52.308;20.994;2024-03-25T16:39:25;11.70;99.90
17483;DHT22;8858;52.308;20.994;2024-03-25T16:41:52;11.60;99.90
17483;DHT22;8858;52.308;20.994;2024-03-25T16:44:18;11.50;99.90
17483;DHT22;8858;52.308;20.994;2024-03-25T16:49:47;11.40;99.90
17483;DHT22;8858;52.308;20.994;2024-03-25T16:52:18;11.20;99.90
17483;DHT22;8858;52.308;20.994;2024-03-25T16:54:49;11.10;99.90
17483;DHT22;8858;52.308;20.994;2024-03-25T16:57:15;10.90;99.90
17483;DHT22;8858;52.308;20.994;2024-03-25T16:59:41;10.80;99.90
17483;DHT22;8858;52.308;20.994;2024-03-25T17:02:08;10.80;99.90
17483;DHT22;8858;52.308;20.994;2024-03-25T17:04:36;10.60;99.90
17483;DHT22;8858;52.308;20.994;2024-03-25T17:07:02;10.50;99.90
17483;DHT22;8858;52.308;20.994;2024-03-25T17:09:28;10.50;99.90
17483;DHT22;8858;52.308;20.994;2024-03-25T17:14:45;10.30;99.90
17483;DHT22;8858;52.308;20.994;2024-03-25T17:17:12;10.20;99.90
17483;DHT22;8858;52.308;20.994;2024-03-25T17:19:39;10.10;99.90
17483;DHT22;8858;52.308;20.994;2024-03-25T17:22:06;10.00;99.90
17483;DHT22;8858;52.308;20.994;2024-03-25T17:24:33;9.90;99.90
17483;DHT22;8858;52.308;20.994;2024-03-25T17:27:00;9.90;99.90
17483;DHT22;8858;52.308;20.994;2024-03-25T17:29:26;9.80;99.90
17483;DHT22;8858;52.308;20.994;2024-03-25T17:31:55;9.70;99.90
17483;DHT22;8858;52.308;20.994;2024-03-25T17:34:24;9.70;99.90
17483;DHT22;8858;52.308;20.994;2024-03-25T17:42:43;9.60;99.90
17483;DHT22;8858;52.308;20.994;2024-03-25T17:45:09;9.50;99.90
17483;DHT22;8858;52.308;20.994;2024-03-25T17:47:37;9.50;99.90
17483;DHT22;8858;52.308;20.994;2024-03-25T17:50:04;9.40;99.90
17483;DHT22;8858;52.308;20.994;2024-03-25T18:01:19;9.10;99.90
17483;DHT22;8858;52.308;20.994;2024-03-25T18:03:47;8.90;99.90
17483;DHT22;8858;52.308;20.994;2024-03-25T18:06:13;8.80;99.90
17483;DHT22;8858;52.308;20.994;2024-03-25T18:08:40;8.70;99.90
17483;DHT22;8858;52.308;20.994;2024-03-25T18:11:07;8.70;99.90
17483;DHT22;8858;52.308;20.994;2024-03-25T18:13:34;8.70;99.90
17483;DHT22;8858;52.308;20.994;2024-03-25T18:18:49;8.60;99.90
17483;DHT22;8858;52.308;20.994;2024-03-25T18:23:57;8.60;99.90
17483;DHT22;8858;52.308;20.994;2024-03-25T18:29:18;8.50;99.90
17483;DHT22;8858;52.308;20.994;2024-03-25T18:31:45;8.40;99.90
17483;DHT22;8858;52.308;20.994;2024-03-25T18:34:18;8.40;99.90
17483;DHT22;8858;52.308;20.994;2024-03-25T18:36:45;8.40;99.90
17483;DHT22;8858;52.308;20.994;2024-03-25T18:39:12;8.40;99.90
17483;DHT22;8858;52.308;20.994;2024-03-25T18:41:39;8.40;99.90
17483;DHT22;8858;52.308;20.994;2024-03-25T18:44:06;8.40;99.90
17483;DHT22;8858;52.308;20.994;2024-03-25T18:46:33;8.30;99.90
17483;DHT22;8858;52.308;20.994;2024-03-25T18:49:00;8.30;99.90
17483;DHT22;8858;52.308;20.994;2024-03-25T18:54:16;8.30;99.90
17483;DHT22;8858;52.308;20.994;2024-03-25T18:56:43;8.20;99.90
17483;DHT22;8858;52.308;20.994;2024-03-25T18:59:09;8.20;99.90
17483;DHT22;8858;52.308;20.994;2024-03-25T19:04:40;8.20;99.90
17483;DHT22;8858;52.308;20.994;2024-03-25T19:12:53;8.10;99.90
17483;DHT22;8858;52.308;20.994;2024-03-25T19:15:19;8.00;99.90
17483;DHT22;8858;52.308;20.994;2024-03-25T19:17:45;8.00;99.90
17483;DHT22;8858;52.308;20.994;2024-03-25T19:23:00;7.90;99.90